Goochland, Virginia
Current Conditions -  °F | °C
As of 11:15 AM on Tuesday 21 Oct 2014 (Local Time) from K7W4 Reporting Station
Clear Clear  
Wind Chill: 62°   Ceiling: Unl
Heat Index: 62°   Visibility: 10mi
Dew Point: 50°   Wind: 3mph
Humidity: 63%   Direction: 250°WSW
Pressure: 29.87"   Gusts: NA
Location:  37.68°N, 77.88°W
Report Text: K7W4 211515Z AUTO 25003KT 10SM CLR 17/10 A2987 RMK AO1 T01690099
Loading
Personal Weather Stations






























Interactive Weather Map
Tropical Storm Tracking
New forecast layout! Learn more

10-Day Weather Forecast

Advertisements
Track Severe Weather on mobile